Terminal Aerodrome Forecast
Issued by NWS

Home | Current Version | Previous Version | Graphics & Text | Print | Product List | Glossary Off
Versions: 1 2 3 4 5 6 7 8 9 10 11 12

000
FTUS45 KGGW 182300
TAFSDY
TAF
KSDY 182320Z 1900/1924 VRB06KT P6SM VCSH BKN120
     FM191200 28011KT P6SM SCT110
     FM191800 28019KT P6SM SCT100
      AMD LTD TO CLD VIS AND WIND=

USA.gov is the U.S. government's official web portal to all federal, state and local government web resources and services.